createdAt,value
2019-02-28T00:00:07.404Z,44.50
2019-02-28T00:01:20.411Z,24.43
2019-02-28T00:02:28.259Z,28.10
2019-02-28T00:03:32.912Z,30.43
2019-02-28T00:04:39.363Z,34.08
2019-02-28T00:05:43.993Z,29.85
2019-02-28T00:06:48.572Z,30.90
2019-02-28T00:07:53.191Z,28.90
2019-02-28T00:08:57.784Z,27.95
2019-02-28T00:10:02.398Z,21.85
2019-02-28T00:11:08.712Z,33.75
2019-02-28T00:12:13.512Z,26.55
2019-02-28T00:13:21.695Z,27.55
2019-02-28T00:14:27.645Z,29.70
2019-02-28T00:15:32.620Z,36.23
2019-02-28T00:16:37.181Z,35.17
2019-02-28T00:17:43.602Z,23.25
2019-02-28T00:18:49.919Z,23.00
2019-02-28T00:19:55.334Z,32.53
2019-02-28T00:21:06.093Z,30.95
2019-02-28T00:22:07.134Z,25.95
2019-02-28T00:23:11.746Z,25.50
2019-02-28T00:24:17.384Z,46.37
2019-02-28T00:25:21.997Z,36.58
2019-02-28T00:26:26.582Z,41.65
2019-02-28T00:27:31.258Z,24.52
2019-02-28T00:28:35.862Z,22.00
2019-02-28T00:29:40.422Z,24.52
2019-02-28T00:30:45.045Z,23.92
2019-02-28T00:31:50.715Z,44.55
2019-02-28T00:32:56.411Z,43.52
2019-02-28T00:34:04.267Z,37.55
2019-02-28T00:35:12.991Z,47.20
2019-02-28T00:36:16.311Z,75.45
2019-02-28T00:37:20.810Z,32.67
2019-02-28T00:38:29.195Z,42.17
2019-02-28T00:39:34.905Z,36.75
2019-02-28T00:40:38.691Z,50.25
2019-02-28T00:41:44.708Z,39.95
2019-02-28T00:42:50.898Z,32.73
2019-02-28T00:43:56.847Z,28.42
2019-02-28T00:45:03.756Z,33.67
2019-02-28T00:46:09.996Z,41.73
2019-02-28T00:47:16.420Z,35.17
2019-02-28T00:48:21.751Z,32.08
2019-02-28T00:49:27.991Z,34.73
2019-02-28T00:50:32.595Z,44.23
2019-02-28T00:51:37.231Z,34.88
2019-02-28T00:52:41.791Z,35.23
2019-02-28T00:53:46.474Z,28.92
2019-02-28T00:54:51.068Z,31.07
2019-02-28T00:55:55.683Z,30.35
2019-02-28T00:57:00.353Z,27.67
2019-02-28T00:58:04.970Z,31.20
2019-02-28T00:59:09.538Z,31.00
2019-02-28T01:00:15.108Z,28.05
2019-02-28T01:01:19.726Z,32.98
2019-02-28T01:02:24.486Z,24.15
2019-02-28T01:03:29.659Z,24.12
2019-02-28T01:04:34.298Z,28.15
2019-02-28T01:05:38.890Z,33.70
2019-02-28T01:06:43.549Z,29.75
2019-02-28T01:07:49.081Z,28.98
2019-02-28T01:08:56.109Z,46.77
2019-02-28T01:10:01.516Z,30.68
2019-02-28T01:11:10.401Z,24.25
2019-02-28T01:12:18.765Z,24.98
2019-02-28T01:13:20.192Z,25.82
2019-02-28T01:14:24.826Z,31.05
2019-02-28T01:15:29.398Z,25.92
2019-02-28T01:16:33.993Z,26.37
2019-02-28T01:17:38.653Z,23.65
2019-02-28T01:18:43.327Z,24.60
2019-02-28T01:19:47.934Z,24.65
2019-02-28T01:20:52.607Z,24.65
2019-02-28T01:21:57.221Z,30.32
2019-02-28T01:23:01.884Z,23.85
2019-02-28T01:24:06.547Z,21.45
2019-02-28T01:25:11.602Z,29.72
2019-02-28T01:26:16.162Z,26.50
2019-02-28T01:27:21.764Z,24.40
2019-02-28T01:28:26.891Z,25.52
2019-02-28T01:29:32.918Z,24.55
2019-02-28T01:30:40.641Z,23.73
2019-02-28T01:31:45.055Z,29.37
2019-02-28T01:32:50.912Z,20.08
2019-02-28T01:33:56.056Z,21.97
2019-02-28T01:35:05.804Z,24.45
2019-02-28T01:36:08.407Z,26.37
2019-02-28T01:37:14.257Z,22.32
2019-02-28T01:38:19.822Z,21.60
2019-02-28T01:39:24.415Z,26.87
2019-02-28T01:40:29.047Z,19.77
2019-02-28T01:41:33.651Z,19.50
2019-02-28T01:42:38.259Z,25.75
2019-02-28T01:43:42.853Z,22.15
2019-02-28T01:44:47.442Z,22.50
2019-02-28T01:45:52.088Z,24.90
2019-02-28T01:46:56.691Z,25.35
2019-02-28T01:48:01.278Z,18.80
2019-02-28T01:49:05.892Z,22.85
2019-02-28T01:50:10.823Z,20.92
2019-02-28T01:51:15.472Z,20.77
2019-02-28T01:52:20.087Z,16.82
2019-02-28T01:53:24.819Z,20.97
2019-02-28T01:54:29.427Z,19.37
2019-02-28T01:55:34.040Z,20.43
2019-02-28T01:56:38.650Z,19.98
2019-02-28T01:57:44.400Z,21.35
2019-02-28T01:58:50.360Z,20.27
2019-02-28T01:59:55.370Z,22.82
2019-02-28T02:00:59.934Z,24.07
2019-02-28T02:02:06.743Z,21.30
2019-02-28T02:03:10.811Z,20.37
2019-02-28T02:04:15.458Z,16.70
2019-02-28T02:05:21.630Z,20.30
2019-02-28T02:06:26.643Z,18.27
2019-02-28T02:07:33.315Z,17.85
2019-02-28T02:08:38.400Z,19.32
2019-02-28T02:09:46.175Z,26.20
2019-02-28T02:10:54.943Z,21.35
2019-02-28T02:11:57.978Z,17.87
2019-02-28T02:13:03.145Z,21.90
2019-02-28T02:14:11.046Z,21.73
2019-02-28T02:15:16.862Z,23.12
2019-02-28T02:16:26.666Z,20.88
2019-02-28T02:17:27.437Z,19.73
2019-02-28T02:18:32.441Z,22.10
2019-02-28T02:19:37.059Z,20.23
2019-02-28T02:20:42.646Z,28.23
2019-02-28T02:21:47.242Z,25.30
2019-02-28T02:22:52.728Z,43.78
2019-02-28T02:23:57.341Z,25.88
2019-02-28T02:25:03.143Z,81.63
2019-02-28T02:26:08.450Z,28.27
2019-02-28T02:27:16.332Z,22.73
2019-02-28T02:28:20.839Z,30.12
2019-02-28T02:29:25.472Z,30.50
2019-02-28T02:30:30.129Z,53.80
2019-02-28T02:31:34.718Z,45.35
2019-02-28T02:32:39.331Z,38.30
2019-02-28T02:33:50.679Z,24.72
2019-02-28T02:34:50.175Z,25.60
2019-02-28T02:35:54.787Z,20.23
2019-02-28T02:36:59.379Z,31.80
2019-02-28T02:38:04.863Z,16.35
2019-02-28T02:39:15.974Z,20.30
2019-02-28T02:40:16.152Z,35.43
2019-02-28T02:41:20.729Z,18.42
2019-02-28T02:42:25.314Z,17.37
2019-02-28T02:43:29.911Z,18.35
2019-02-28T02:44:35.500Z,16.77
2019-02-28T02:45:43.367Z,17.57
2019-02-28T02:46:46.380Z,16.85
2019-02-28T02:47:50.983Z,21.07
2019-02-28T02:48:55.608Z,17.48
2019-02-28T02:50:00.231Z,17.32
2019-02-28T02:51:10.760Z,17.73
2019-02-28T02:52:11.323Z,17.82
2019-02-28T02:53:15.973Z,23.90
2019-02-28T02:54:20.617Z,18.77
2019-02-28T02:55:28.961Z,15.80
2019-02-28T02:56:31.552Z,15.83
2019-02-28T02:57:36.235Z,25.43
2019-02-28T02:58:40.811Z,20.65
2019-02-28T02:59:45.346Z,21.10
2019-02-28T03:00:51.520Z,16.55
2019-02-28T03:01:57.246Z,17.27
2019-02-28T03:03:06.149Z,13.32
2019-02-28T03:04:08.270Z,16.75
2019-02-28T03:05:13.034Z,16.23
2019-02-28T03:06:17.695Z,20.17
2019-02-28T03:07:24.883Z,18.23
2019-02-28T03:08:35.677Z,17.15
2019-02-28T03:09:36.002Z,21.62
2019-02-28T03:10:40.667Z,16.65
2019-02-28T03:11:45.303Z,16.67
2019-02-28T03:12:49.911Z,16.57
2019-02-28T03:13:54.541Z,16.95
2019-02-28T03:14:59.098Z,18.45
2019-02-28T03:16:03.687Z,15.30
2019-02-28T03:17:11.816Z,21.95
2019-02-28T03:18:14.569Z,17.40
2019-02-28T03:19:19.154Z,18.50
2019-02-28T03:20:23.731Z,20.70
2019-02-28T03:21:28.352Z,22.80
2019-02-28T03:22:32.897Z,17.60
2019-02-28T03:23:39.848Z,16.57
2019-02-28T03:24:50.498Z,21.97
2019-02-28T03:25:50.942Z,14.55
2019-02-28T03:26:55.521Z,16.75
2019-02-28T03:28:00.093Z,17.30
2019-02-28T03:29:07.927Z,16.87
2019-02-28T03:30:26.356Z,17.45
2019-02-28T03:31:19.756Z,18.23
2019-02-28T03:32:24.424Z,16.32
2019-02-28T03:33:29.133Z,15.55
2019-02-28T03:34:33.880Z,19.17
2019-02-28T03:35:43.404Z,16.82
2019-02-28T03:36:55.160Z,21.77
2019-02-28T03:37:50.998Z,28.35
2019-02-28T03:38:55.580Z,18.00
2019-02-28T03:40:05.297Z,16.15
2019-02-28T03:41:16.284Z,18.42
2019-02-28T03:42:16.372Z,20.68
2019-02-28T03:43:21.000Z,20.43
2019-02-28T03:44:25.602Z,22.50
2019-02-28T03:45:35.174Z,18.82
2019-02-28T03:46:37.724Z,17.27
2019-02-28T03:47:42.357Z,22.22
2019-02-28T03:48:52.568Z,19.92
2019-02-28T03:49:57.135Z,21.02
2019-02-28T03:51:01.742Z,20.68
2019-02-28T03:52:06.946Z,20.72
2019-02-28T03:53:11.684Z,15.80
2019-02-28T03:54:16.285Z,18.73
2019-02-28T03:55:20.870Z,17.30
2019-02-28T03:56:28.142Z,15.20
2019-02-28T03:57:33.779Z,16.27
2019-02-28T03:58:42.821Z,18.52
2019-02-28T03:59:44.755Z,18.25
2019-02-28T04:00:49.585Z,18.30
2019-02-28T04:01:54.164Z,19.30
2019-02-28T04:02:59.177Z,17.62
2019-02-28T04:04:10.865Z,19.05
2019-02-28T04:05:10.501Z,17.17
2019-02-28T04:06:15.310Z,20.17
2019-02-28T04:07:21.915Z,16.75
2019-02-28T04:08:30.364Z,20.77
2019-02-28T04:09:43.773Z,19.15
2019-02-28T04:10:42.463Z,29.45
2019-02-28T04:11:47.009Z,19.65
2019-02-28T04:12:51.675Z,17.77
2019-02-28T04:13:56.946Z,17.37
2019-02-28T04:15:05.844Z,19.75
2019-02-28T04:16:10.018Z,16.65
2019-02-28T04:17:14.711Z,37.23
2019-02-28T04:18:19.348Z,29.15
2019-02-28T04:19:23.979Z,24.15
2019-02-28T04:20:36.174Z,39.50
2019-02-28T04:21:34.869Z,24.82
2019-02-28T04:22:39.444Z,20.85
2019-02-28T04:23:44.304Z,21.12
2019-02-28T04:24:48.936Z,20.23
2019-02-28T04:25:56.835Z,20.20
2019-02-28T04:27:05.899Z,40.48
2019-02-28T04:28:06.060Z,27.85
2019-02-28T04:29:10.674Z,27.10
2019-02-28T04:30:15.619Z,24.92
2019-02-28T04:31:20.915Z,21.23
2019-02-28T04:32:27.556Z,20.23
2019-02-28T04:33:37.656Z,20.92
2019-02-28T04:34:38.240Z,18.57
2019-02-28T04:35:42.901Z,29.55
2019-02-28T04:36:47.503Z,23.85
2019-02-28T04:37:55.209Z,21.23
2019-02-28T04:38:59.814Z,22.52
2019-02-28T04:40:06.451Z,22.30
2019-02-28T04:41:11.184Z,24.45
2019-02-28T04:42:15.781Z,22.17
2019-02-28T04:43:20.444Z,21.48
2019-02-28T04:44:25.030Z,27.62
2019-02-28T04:45:29.603Z,24.10
2019-02-28T04:46:34.437Z,31.73
2019-02-28T04:47:40.483Z,25.90
2019-02-28T04:48:45.693Z,29.00
2019-02-28T04:49:53.481Z,24.72
2019-02-28T04:50:57.984Z,24.05
2019-02-28T04:52:02.959Z,28.15
2019-02-28T04:53:07.548Z,28.00
2019-02-28T04:54:12.138Z,23.65
2019-02-28T04:55:16.933Z,23.57
2019-02-28T04:56:21.696Z,21.93
2019-02-28T04:57:26.337Z,29.30
2019-02-28T04:58:31.001Z,26.80
2019-02-28T04:59:35.751Z,28.05
2019-02-28T05:00:40.367Z,24.37
2019-02-28T05:01:46.185Z,26.97
2019-02-28T05:02:53.993Z,26.12
2019-02-28T05:03:59.121Z,25.52
2019-02-28T05:05:04.969Z,29.27
2019-02-28T05:06:09.666Z,31.07
2019-02-28T05:07:14.335Z,28.55
2019-02-28T05:08:19.008Z,27.22
2019-02-28T05:09:23.695Z,29.23
2019-02-28T05:10:28.263Z,32.90
2019-02-28T05:11:33.720Z,26.77
2019-02-28T05:12:39.921Z,29.63
2019-02-28T05:13:48.859Z,34.67
2019-02-28T05:14:55.295Z,32.25
2019-02-28T05:16:00.103Z,28.75
2019-02-28T05:17:04.762Z,33.10
2019-02-28T05:18:10.030Z,28.87
2019-02-28T05:19:15.633Z,33.98
2019-02-28T05:20:20.731Z,31.07
2019-02-28T05:21:25.607Z,35.48
2019-02-28T05:22:30.873Z,34.58
2019-02-28T05:23:36.750Z,37.33
2019-02-28T05:24:42.587Z,34.25
2019-02-28T05:25:49.140Z,37.20
2019-02-28T05:26:57.285Z,34.38
2019-02-28T05:28:02.686Z,33.63
2019-02-28T05:29:13.078Z,35.10
2019-02-28T05:30:19.649Z,35.75
2019-02-28T05:31:27.081Z,38.98
2019-02-28T05:32:35.658Z,32.48
2019-02-28T05:33:42.102Z,33.25
2019-02-28T05:34:47.441Z,34.50
2019-02-28T05:35:57.296Z,39.03
2019-02-28T05:37:01.168Z,37.80
2019-02-28T05:38:07.372Z,32.15
2019-02-28T05:39:12.060Z,34.48
2019-02-28T05:40:17.463Z,39.08
2019-02-28T05:41:22.482Z,35.20
2019-02-28T05:42:30.725Z,35.48
2019-02-28T05:43:35.441Z,35.98
2019-02-28T05:44:40.317Z,38.60
2019-02-28T05:45:48.730Z,34.33
2019-02-28T05:46:52.094Z,38.10
2019-02-28T05:47:56.833Z,40.00
2019-02-28T05:49:01.440Z,36.58
2019-02-28T05:50:07.350Z,37.60
2019-02-28T05:51:12.784Z,43.10
2019-02-28T05:52:17.803Z,36.65
2019-02-28T05:53:22.725Z,38.42
2019-02-28T05:54:27.954Z,36.73
2019-02-28T05:55:33.179Z,40.05
2019-02-28T05:56:37.949Z,37.00
2019-02-28T05:57:44.769Z,37.85
2019-02-28T05:58:49.371Z,35.15
2019-02-28T06:00:01.385Z,40.63
2019-02-28T06:01:01.670Z,39.80
2019-02-28T06:02:06.373Z,35.23
2019-02-28T06:03:10.986Z,39.15
2019-02-28T06:04:15.819Z,42.10
2019-02-28T06:05:20.433Z,41.20
2019-02-28T06:06:25.321Z,39.78
2019-02-28T06:07:30.222Z,37.83
2019-02-28T06:08:35.504Z,39.55
2019-02-28T06:09:41.274Z,40.15
2019-02-28T06:10:46.382Z,40.75
2019-02-28T06:11:50.995Z,42.43
2019-02-28T06:12:55.577Z,40.10
2019-02-28T06:14:00.136Z,38.17
2019-02-28T06:15:05.979Z,46.18
2019-02-28T06:16:12.304Z,41.30
2019-02-28T06:17:17.405Z,46.40
2019-02-28T06:18:26.972Z,39.75
2019-02-28T06:19:29.797Z,46.08
2019-02-28T06:20:34.422Z,43.23
2019-02-28T06:21:39.022Z,50.80
2019-02-28T06:22:44.314Z,51.48
2019-02-28T06:23:48.965Z,48.48
2019-02-28T06:24:53.634Z,53.05
2019-02-28T06:25:59.313Z,54.40
2019-02-28T06:27:06.561Z,50.80
2019-02-28T06:28:12.052Z,54.70
2019-02-28T06:29:16.765Z,46.98
2019-02-28T06:30:21.345Z,43.50
2019-02-28T06:31:25.978Z,45.10
2019-02-28T06:32:30.927Z,42.50
2019-02-28T06:33:38.239Z,40.12
2019-02-28T06:34:46.346Z,44.25
2019-02-28T06:35:53.737Z,44.35
2019-02-28T06:36:57.283Z,46.65
2019-02-28T06:38:02.019Z,45.95
2019-02-28T06:39:07.546Z,50.00
2019-02-28T06:40:13.313Z,44.53
2019-02-28T06:41:17.912Z,44.93
2019-02-28T06:42:22.523Z,43.80
2019-02-28T06:43:27.376Z,47.95
2019-02-28T06:44:32.053Z,44.73
2019-02-28T06:45:37.705Z,48.20
2019-02-28T06:46:43.682Z,54.55
2019-02-28T06:47:50.225Z,55.60
2019-02-28T06:49:01.640Z,47.73
2019-02-28T06:50:01.614Z,48.30
2019-02-28T06:51:06.295Z,47.58
2019-02-28T06:52:11.077Z,51.55
2019-02-28T06:53:15.748Z,50.33
2019-02-28T06:54:23.250Z,59.08
2019-02-28T06:55:28.304Z,52.10
2019-02-28T06:56:33.484Z,47.55
2019-02-28T06:57:38.515Z,55.60
2019-02-28T06:58:43.655Z,52.83
2019-02-28T06:59:48.721Z,53.30
2019-02-28T07:00:56.133Z,49.23
2019-02-28T07:02:01.228Z,48.48
2019-02-28T07:03:06.259Z,51.80
2019-02-28T07:04:14.493Z,50.75
2019-02-28T07:05:24.501Z,61.92
2019-02-28T07:06:27.558Z,52.23
2019-02-28T07:07:32.680Z,50.55
2019-02-28T07:08:37.941Z,52.70
2019-02-28T07:09:43.027Z,64.17
2019-02-28T07:10:48.382Z,58.68
2019-02-28T07:11:54.887Z,52.48
2019-02-28T07:13:04.487Z,60.48
2019-02-28T07:14:13.801Z,57.08
2019-02-28T07:15:23.627Z,54.27
2019-02-28T07:16:24.860Z,58.63
2019-02-28T07:17:29.671Z,56.15
2019-02-28T07:18:34.633Z,58.58
2019-02-28T07:19:39.371Z,57.08
2019-02-28T07:20:44.000Z,53.92
2019-02-28T07:21:48.684Z,53.20
2019-02-28T07:22:55.641Z,61.13
2019-02-28T07:24:02.385Z,55.73
2019-02-28T07:25:09.498Z,62.00
2019-02-28T07:26:18.725Z,60.15
2019-02-28T07:27:23.416Z,66.55
2019-02-28T07:28:29.515Z,62.15
2019-02-28T07:29:34.104Z,57.17
2019-02-28T07:30:38.746Z,58.92
2019-02-28T07:31:43.415Z,58.25
2019-02-28T07:32:49.400Z,57.10
2019-02-28T07:33:54.410Z,63.95
2019-02-28T07:34:59.031Z,60.73
2019-02-28T07:36:09.579Z,56.92
2019-02-28T07:37:12.704Z,61.33
2019-02-28T07:38:17.664Z,60.33
2019-02-28T07:39:22.939Z,62.43
2019-02-28T07:40:27.643Z,61.30
2019-02-28T07:41:32.334Z,61.08
2019-02-28T07:42:37.563Z,62.30
2019-02-28T07:43:45.874Z,55.65
2019-02-28T07:44:50.128Z,63.42
2019-02-28T07:45:54.744Z,70.87
2019-02-28T07:46:59.780Z,63.05
2019-02-28T07:48:04.421Z,58.87
2019-02-28T07:49:09.018Z,58.33
2019-02-28T07:50:13.871Z,70.90
2019-02-28T07:51:22.012Z,64.60
2019-02-28T07:52:24.785Z,64.22
2019-02-28T07:53:30.893Z,60.95
2019-02-28T07:54:35.532Z,68.28
2019-02-28T07:55:40.126Z,68.52
2019-02-28T07:56:44.801Z,76.17
2019-02-28T07:57:53.304Z,68.55
2019-02-28T07:58:55.742Z,64.62
2019-02-28T08:00:00.412Z,68.40
2019-02-28T08:01:06.400Z,68.62
2019-02-28T08:02:11.018Z,65.52
2019-02-28T08:03:15.662Z,74.70
2019-02-28T08:04:20.789Z,71.07
2019-02-28T08:05:30.071Z,62.05
2019-02-28T08:06:32.012Z,69.92
2019-02-28T08:07:36.683Z,65.83
2019-02-28T08:08:41.249Z,64.22
2019-02-28T08:09:46.032Z,57.23
2019-02-28T08:10:50.820Z,66.97
2019-02-28T08:11:56.761Z,64.70
2019-02-28T08:13:03.174Z,72.92
2019-02-28T08:14:09.160Z,68.02
2019-02-28T08:15:21.095Z,70.85
2019-02-28T08:16:22.931Z,93.62
2019-02-28T08:17:27.525Z,72.90
2019-02-28T08:18:33.074Z,68.12
2019-02-28T08:19:38.077Z,73.57
2019-02-28T08:20:42.902Z,63.70
2019-02-28T08:21:50.449Z,76.30
2019-02-28T08:22:56.565Z,85.85
2019-02-28T08:24:02.448Z,71.20
2019-02-28T08:25:08.776Z,80.85
2019-02-28T08:26:15.461Z,71.28
2019-02-28T08:27:19.991Z,86.80
2019-02-28T08:28:26.810Z,86.65
2019-02-28T08:29:31.495Z,84.28
2019-02-28T08:30:36.450Z,71.72
2019-02-28T08:31:41.171Z,70.60
2019-02-28T08:32:47.193Z,71.60
2019-02-28T08:33:52.033Z,76.82
2019-02-28T08:34:59.517Z,124.25
2019-02-28T08:36:02.946Z,83.75
2019-02-28T08:37:07.592Z,90.47
2019-02-28T08:38:12.206Z,76.07
2019-02-28T08:39:17.413Z,117.05
2019-02-28T08:40:22.287Z,101.12
2019-02-28T08:41:26.931Z,96.85
2019-02-28T08:42:31.531Z,84.35
2019-02-28T08:43:36.146Z,85.40
2019-02-28T08:44:41.800Z,78.92
2019-02-28T08:45:46.426Z,106.72
2019-02-28T08:46:51.034Z,85.57
2019-02-28T08:47:56.926Z,107.52
2019-02-28T08:49:06.238Z,75.57
2019-02-28T08:50:10.596Z,121.82
2019-02-28T08:51:15.556Z,87.40
2019-02-28T08:52:20.276Z,82.45
2019-02-28T08:53:24.932Z,79.00
2019-02-28T08:54:29.698Z,120.42
2019-02-28T08:55:34.711Z,77.90
2019-02-28T08:56:39.415Z,74.32
2019-02-28T08:57:44.116Z,81.00
2019-02-28T08:58:48.749Z,85.77
2019-02-28T08:59:56.316Z,87.45
2019-02-28T09:00:59.748Z,81.47
2019-02-28T09:02:04.560Z,80.17
2019-02-28T09:03:09.265Z,91.15
2019-02-28T09:04:13.936Z,76.57
2019-02-28T09:05:18.724Z,91.50
2019-02-28T09:06:23.334Z,79.42
2019-02-28T09:07:27.939Z,78.25
2019-02-28T09:08:32.601Z,82.92
2019-02-28T09:09:37.170Z,86.70
2019-02-28T09:10:43.729Z,82.62
2019-02-28T09:11:48.096Z,73.90
2019-02-28T09:12:52.936Z,82.70
2019-02-28T09:13:57.564Z,83.27
2019-02-28T09:15:02.404Z,80.75
2019-02-28T09:16:08.213Z,78.72
2019-02-28T09:17:15.498Z,80.57
2019-02-28T09:18:19.219Z,79.97
2019-02-28T09:19:23.913Z,79.20
2019-02-28T09:20:28.570Z,80.28
2019-02-28T09:21:33.235Z,80.92
2019-02-28T09:22:37.825Z,79.95
2019-02-28T09:23:42.480Z,87.70
2019-02-28T09:24:47.447Z,84.72
2019-02-28T09:25:53.408Z,84.07
2019-02-28T09:27:01.367Z,82.40
2019-02-28T09:28:05.363Z,82.02
2019-02-28T09:29:09.948Z,85.38
2019-02-28T09:30:20.403Z,90.40
2019-02-28T09:31:26.093Z,78.62
2019-02-28T09:32:30.683Z,80.03
2019-02-28T09:33:35.466Z,81.35
2019-02-28T09:34:41.312Z,82.60
2019-02-28T09:35:46.560Z,91.05
2019-02-28T09:36:55.259Z,81.00
2019-02-28T09:37:57.562Z,81.80
2019-02-28T09:39:02.155Z,81.65
2019-02-28T09:40:10.352Z,82.50
2019-02-28T09:41:14.996Z,83.82
2019-02-28T09:42:19.599Z,85.05
2019-02-28T09:43:24.846Z,79.35
2019-02-28T09:44:31.490Z,85.57
2019-02-28T09:45:35.961Z,89.55
2019-02-28T09:46:40.596Z,86.12
2019-02-28T09:47:46.168Z,83.40
2019-02-28T09:48:50.850Z,80.22
2019-02-28T09:49:55.463Z,79.00
2019-02-28T09:51:00.069Z,86.72
2019-02-28T09:52:06.298Z,90.38
2019-02-28T09:53:15.566Z,103.02
2019-02-28T09:54:18.076Z,97.75
2019-02-28T09:55:22.659Z,97.40
2019-02-28T09:56:27.362Z,103.15
2019-02-28T09:57:31.946Z,92.47
2019-02-28T09:58:36.615Z,86.45
2019-02-28T09:59:41.487Z,86.17
2019-02-28T10:00:46.548Z,78.83
2019-02-28T10:02:01.100Z,86.55
2019-02-28T10:02:59.807Z,88.62
2019-02-28T10:04:04.559Z,92.33
2019-02-28T10:05:09.355Z,85.87
2019-02-28T10:06:16.381Z,104.35
2019-02-28T10:07:23.360Z,97.55
2019-02-28T10:08:26.746Z,105.40
2019-02-28T10:09:31.538Z,105.92
2019-02-28T10:10:36.157Z,74.03
2019-02-28T10:11:40.806Z,100.30
2019-02-28T10:12:45.504Z,82.20
2019-02-28T10:13:53.125Z,87.40
2019-02-28T10:14:56.478Z,99.35
2019-02-28T10:16:01.111Z,78.37
2019-02-28T10:17:05.877Z,75.10
2019-02-28T10:18:10.654Z,78.65
2019-02-28T10:19:29.889Z,79.85
2019-02-28T10:20:35.474Z,83.05
2019-02-28T10:21:40.076Z,89.13
2019-02-28T10:22:47.309Z,96.75
2019-02-28T10:23:53.396Z,75.90
2019-02-28T10:24:57.474Z,86.35
2019-02-28T10:26:02.127Z,79.35
2019-02-28T10:27:07.845Z,86.05
2019-02-28T10:28:12.516Z,92.02
2019-02-28T10:29:17.199Z,88.82
2019-02-28T10:30:31.309Z,113.28
2019-02-28T10:31:36.226Z,106.97
2019-02-28T10:32:35.263Z,85.87
2019-02-28T10:33:39.934Z,80.50
2019-02-28T10:34:44.669Z,89.00
2019-02-28T10:35:49.273Z,83.12
2019-02-28T10:36:54.021Z,80.25
2019-02-28T10:37:58.986Z,110.95
2019-02-28T10:39:08.715Z,94.37
2019-02-28T10:40:17.858Z,99.17
2019-02-28T10:41:24.190Z,75.70
2019-02-28T10:42:28.135Z,76.90
2019-02-28T10:43:32.834Z,76.90
2019-02-28T10:44:37.534Z,85.05
2019-02-28T10:45:42.326Z,76.77
2019-02-28T10:46:53.493Z,76.05
2019-02-28T10:47:54.025Z,89.55
2019-02-28T10:48:58.723Z,72.05
2019-02-28T10:50:03.498Z,80.20
2019-02-28T10:51:14.089Z,85.50
2019-02-28T10:52:14.499Z,73.80
2019-02-28T10:53:19.369Z,74.60
2019-02-28T10:54:23.990Z,78.78
2019-02-28T10:55:31.829Z,78.05
2019-02-28T10:56:39.123Z,72.67
2019-02-28T10:57:44.023Z,85.57
2019-02-28T10:58:50.093Z,80.83
2019-02-28T10:59:55.126Z,79.15
2019-02-28T11:01:07.698Z,81.47
2019-02-28T11:02:07.843Z,75.55
2019-02-28T11:03:12.686Z,75.30
2019-02-28T11:04:17.348Z,75.28
2019-02-28T11:05:25.087Z,75.17
2019-02-28T11:06:30.055Z,76.87
2019-02-28T11:07:37.835Z,85.45
2019-02-28T11:08:44.519Z,73.83
2019-02-28T11:09:48.275Z,75.05
2019-02-28T11:10:53.186Z,76.20
2019-02-28T11:11:57.856Z,71.22
2019-02-28T11:13:02.696Z,75.00
2019-02-28T11:14:08.836Z,75.10
2019-02-28T11:15:17.293Z,74.58
2019-02-28T11:16:23.685Z,76.22
2019-02-28T11:17:30.482Z,72.42
2019-02-28T11:18:36.456Z,79.70
2019-02-28T11:19:41.438Z,81.82
2019-02-28T11:20:46.534Z,72.12
2019-02-28T11:21:51.308Z,75.00
2019-02-28T11:22:55.997Z,68.47
2019-02-28T11:24:00.630Z,65.57
2019-02-28T11:25:05.953Z,74.05
2019-02-28T11:26:10.655Z,73.52
2019-02-28T11:27:19.686Z,77.72
2019-02-28T11:28:27.728Z,68.97
2019-02-28T11:29:29.351Z,73.85
2019-02-28T11:30:36.094Z,78.37
2019-02-28T11:31:41.120Z,70.95
2019-02-28T11:32:46.016Z,63.13
2019-02-28T11:33:51.944Z,76.55
2019-02-28T11:34:56.639Z,82.22
2019-02-28T11:36:01.491Z,86.08
2019-02-28T11:37:08.966Z,68.35
2019-02-28T11:38:13.482Z,72.75
2019-02-28T11:39:20.996Z,74.25
2019-02-28T11:40:27.155Z,72.55
2019-02-28T11:41:31.732Z,83.78
2019-02-28T11:42:36.369Z,66.53
2019-02-28T11:43:41.435Z,67.50
2019-02-28T11:44:46.760Z,69.03
2019-02-28T11:45:52.566Z,72.60
2019-02-28T11:46:57.344Z,68.52
2019-02-28T11:48:03.277Z,66.67
2019-02-28T11:49:07.959Z,64.00
2019-02-28T11:50:12.802Z,67.97
2019-02-28T11:51:17.618Z,65.60
2019-02-28T11:52:24.531Z,65.57
2019-02-28T11:53:29.821Z,73.80
2019-02-28T11:54:34.511Z,67.30
2019-02-28T11:55:39.507Z,71.02
2019-02-28T11:56:44.131Z,77.72
2019-02-28T11:57:49.332Z,72.58
2019-02-28T11:58:55.237Z,70.78
2019-02-28T12:00:00.524Z,72.17
2019-02-28T12:01:10.659Z,73.05
2019-02-28T12:02:14.345Z,88.07
2019-02-28T12:03:19.032Z,67.92
2019-02-28T12:04:23.707Z,67.00
2019-02-28T12:05:28.492Z,64.07
2019-02-28T12:06:33.090Z,74.45
2019-02-28T12:07:37.732Z,73.10
2019-02-28T12:08:44.892Z,66.72
2019-02-28T12:09:51.451Z,67.50
2019-02-28T12:10:58.330Z,71.87
2019-02-28T12:12:02.562Z,71.12
2019-02-28T12:13:07.273Z,79.50
2019-02-28T12:14:12.270Z,71.12
2019-02-28T12:15:17.958Z,66.37
2019-02-28T12:16:22.592Z,69.97
2019-02-28T12:17:28.556Z,68.70
2019-02-28T12:18:39.548Z,64.00
2019-02-28T12:19:40.218Z,68.07
2019-02-28T12:20:44.896Z,66.17
2019-02-28T12:21:49.495Z,69.85
2019-02-28T12:22:54.034Z,74.53
2019-02-28T12:24:00.560Z,70.60
2019-02-28T12:25:07.604Z,75.15
2019-02-28T12:26:14.447Z,85.72
2019-02-28T12:27:18.850Z,68.00
2019-02-28T12:28:23.582Z,78.72
2019-02-28T12:29:28.231Z,72.17
2019-02-28T12:30:33.067Z,72.58
2019-02-28T12:31:37.956Z,65.37
2019-02-28T12:32:43.515Z,74.95
2019-02-28T12:33:48.845Z,72.55
2019-02-28T12:34:53.466Z,68.83
2019-02-28T12:35:58.162Z,73.60
2019-02-28T12:37:03.472Z,60.92
2019-02-28T12:38:08.122Z,67.70
2019-02-28T12:39:12.982Z,68.45
2019-02-28T12:40:20.182Z,71.82
2019-02-28T12:41:25.254Z,66.17
2019-02-28T12:42:34.672Z,75.40
2019-02-28T12:43:40.567Z,75.55
2019-02-28T12:44:46.282Z,73.40
2019-02-28T12:45:51.295Z,62.62
2019-02-28T12:46:55.912Z,73.92
2019-02-28T12:48:00.551Z,74.03
2019-02-28T12:49:05.637Z,69.05
2019-02-28T12:50:11.018Z,68.35
2019-02-28T12:51:15.999Z,67.75
2019-02-28T12:52:20.650Z,69.32
2019-02-28T12:53:25.496Z,63.60
2019-02-28T12:54:33.041Z,65.45
2019-02-28T12:55:38.925Z,73.65
2019-02-28T12:56:45.208Z,58.02
2019-02-28T12:57:49.289Z,77.67
2019-02-28T12:58:53.901Z,70.95
2019-02-28T12:59:58.498Z,72.53
2019-02-28T13:01:03.265Z,66.45
2019-02-28T13:02:08.630Z,78.83
2019-02-28T13:03:19.154Z,73.47
2019-02-28T13:04:19.871Z,62.70
2019-02-28T13:05:24.552Z,74.82
2019-02-28T13:06:29.178Z,69.10
2019-02-28T13:07:34.632Z,67.92
2019-02-28T13:08:41.724Z,56.45
2019-02-28T13:09:48.254Z,66.65
2019-02-28T13:10:52.088Z,68.00
2019-02-28T13:11:57.135Z,65.92
2019-02-28T13:13:06.319Z,81.30
2019-02-28T13:14:08.015Z,72.82
2019-02-28T13:15:13.941Z,71.05
2019-02-28T13:16:20.736Z,62.90
2019-02-28T13:17:25.119Z,63.23
2019-02-28T13:18:29.788Z,67.03
2019-02-28T13:19:34.814Z,67.67
2019-02-28T13:20:39.788Z,65.32
2019-02-28T13:21:46.773Z,74.10
2019-02-28T13:22:50.962Z,66.77
2019-02-28T13:23:56.739Z,65.00
2019-02-28T13:25:01.377Z,68.33
2019-02-28T13:26:06.114Z,69.92
2019-02-28T13:27:12.188Z,83.50
2019-02-28T13:28:18.133Z,71.33
2019-02-28T13:29:23.112Z,78.40
2019-02-28T13:30:28.248Z,71.95
2019-02-28T13:31:35.363Z,73.02
2019-02-28T13:32:39.821Z,71.82
2019-02-28T13:33:48.666Z,72.95
2019-02-28T13:34:50.781Z,83.65
2019-02-28T13:35:55.624Z,74.42
2019-02-28T13:37:02.954Z,83.72
2019-02-28T13:38:07.011Z,71.28
2019-02-28T13:39:11.997Z,68.30
2019-02-28T13:40:17.229Z,77.37
2019-02-28T13:41:26.021Z,75.42
2019-02-28T13:42:28.682Z,73.25
2019-02-28T13:43:33.729Z,79.00
2019-02-28T13:44:39.753Z,63.68
2019-02-28T13:45:44.537Z,77.30
2019-02-28T13:46:49.342Z,69.27
2019-02-28T13:47:54.259Z,77.30
2019-02-28T13:48:59.013Z,76.37
2019-02-28T13:50:05.428Z,69.45
2019-02-28T13:51:10.312Z,78.42
2019-02-28T13:52:19.300Z,78.45
2019-02-28T13:53:23.256Z,68.60
2019-02-28T13:54:27.790Z,73.35
2019-02-28T13:55:35.484Z,76.87
2019-02-28T13:56:40.287Z,76.85
2019-02-28T13:57:46.616Z,73.52
2019-02-28T13:58:53.621Z,87.60
2019-02-28T13:59:58.676Z,77.25
2019-02-28T14:01:05.804Z,78.40
2019-02-28T14:02:10.378Z,69.65